Time;durP1;ratioP1;P1;durP2;ratioP2;P2;SDS_P1;SDS_P2;PMS_P1;PMS_P2;Temp;Humidity;BMP_temperature;BMP_pressure;BME280_temperature;BME280_humidity;BME280_pressure;Samples;Min_cycle;Max_cycle;Signal;HPM_P1;HPM_P2
2023/08/30 00:00:36;;;;;;;3.45;3.15;;;;;;;;;;5055035;28;20418;-81
2023/08/30 00:03:01;;;;;;;3.85;3.40;;;;;;;;;;5055220;28;20028;-80
2023/08/30 00:05:27;;;;;;;4.32;3.25;;;;;;;;;;5056355;28;20068;-80
2023/08/30 00:07:53;;;;;;;3.65;3.35;;;;;;;;;;5055356;28;20017;-81
2023/08/30 00:10:18;;;;;;;3.50;3.08;;;;;;;;;;5057726;28;20046;-81
2023/08/30 00:12:44;;;;;;;3.95;3.50;;;;;;;;;;5078000;28;20116;-82
2023/08/30 00:15:09;;;;;;;3.80;2.95;;;;;;;;;;5070209;28;20081;-80
2023/08/30 00:17:35;;;;;;;3.53;3.00;;;;;;;;;;5059430;28;20501;-80
2023/08/30 00:20:00;;;;;;;4.28;3.40;;;;;;;;;;5062924;28;20029;-81
2023/08/30 00:22:27;;;;;;;7.28;3.08;;;;;;;;;;5054063;28;20032;-79
2023/08/30 00:24:53;;;;;;;4.07;3.00;;;;;;;;;;5054956;28;20017;-81
2023/08/30 00:27:20;;;;;;;3.92;3.20;;;;;;;;;;5054422;28;20045;-81
2023/08/30 00:29:45;;;;;;;4.93;3.28;;;;;;;;;;5054332;28;20025;-81
2023/08/30 00:32:11;;;;;;;3.08;2.78;;;;;;;;;;5063032;28;20029;-81
2023/08/30 00:34:36;;;;;;;4.10;3.70;;;;;;;;;;5036294;28;20025;-81
2023/08/30 00:37:02;;;;;;;5.13;3.13;;;;;;;;;;5063665;28;20103;-81
2023/08/30 00:39:27;;;;;;;4.32;3.50;;;;;;;;;;5053692;28;20025;-80
2023/08/30 00:41:53;;;;;;;5.55;3.50;;;;;;;;;;5065593;28;20024;-80
2023/08/30 00:44:19;;;;;;;4.18;3.25;;;;;;;;;;5040936;28;20112;-80
2023/08/30 00:46:45;;;;;;;6.60;3.30;;;;;;;;;;5060029;28;20111;-80
2023/08/30 00:49:10;;;;;;;3.67;3.10;;;;;;;;;;5063280;28;20479;-80
2023/08/30 00:51:36;;;;;;;7.07;3.22;;;;;;;;;;5059106;28;20056;-80
2023/08/30 00:54:02;;;;;;;4.63;3.28;;;;;;;;;;5067840;28;20403;-79
2023/08/30 00:56:28;;;;;;;3.60;3.10;;;;;;;;;;5060827;28;20032;-80
2023/08/30 00:58:54;;;;;;;4.43;3.50;;;;;;;;;;5086850;28;21307;-78
2023/08/30 01:01:20;;;;;;;5.32;4.22;;;;;;;;;;5081563;28;20055;-79
2023/08/30 01:03:45;;;;;;;4.07;3.63;;;;;;;;;;5054505;28;20087;-79
2023/08/30 01:06:10;;;;;;;4.15;3.67;;;;;;;;;;5058171;28;20521;-80
2023/08/30 01:08:37;;;;;;;6.88;3.65;;;;;;;;;;5067229;28;20151;-79
2023/08/30 01:11:16;;;;;;;4.88;3.75;;;;;;;;;;5059102;28;20027;-80
2023/08/30 01:13:50;;;;;;;4.70;3.38;;;;;;;;;;5058486;28;20021;-81
2023/08/30 01:16:16;;;;;;;4.60;3.63;;;;;;;;;;5054580;28;20035;-80
2023/08/30 01:18:42;;;;;;;4.93;3.47;;;;;;;;;;5057138;28;20047;-81
2023/08/30 01:21:18;;;;;;;4.10;3.53;;;;;;;;;;5067595;28;20056;-80
2023/08/30 01:23:52;;;;;;;4.63;3.78;;;;;;;;;;5067943;28;20056;-81
2023/08/30 01:26:44;;;;;;;3.88;3.47;;;;;;;;;;5060334;28;20455;-80
2023/08/30 01:29:12;;;;;;;4.85;3.25;;;;;;;;;;5052304;28;20040;-79
2023/08/30 01:31:39;;;;;;;3.58;3.28;;;;;;;;;;5040069;28;20056;-77
2023/08/30 01:34:05;;;;;;;4.80;3.22;;;;;;;;;;5065944;28;20076;-78
2023/08/30 01:36:33;;;;;;;4.60;3.63;;;;;;;;;;5073862;28;20044;-80
2023/08/30 01:38:59;;;;;;;3.55;3.03;;;;;;;;;;5066888;28;20069;-78
2023/08/30 01:41:26;;;;;;;5.70;3.13;;;;;;;;;;5070499;28;20051;-78
2023/08/30 01:43:53;;;;;;;3.80;3.38;;;;;;;;;;5069297;28;20044;-79
2023/08/30 01:46:20;;;;;;;4.63;3.28;;;;;;;;;;5066134;28;20060;-79
2023/08/30 01:48:47;;;;;;;3.20;2.85;;;;;;;;;;5059358;28;20031;-78
2023/08/30 01:51:15;;;;;;;3.53;3.17;;;;;;;;;;5076410;28;20108;-79
2023/08/30 01:53:42;;;;;;;6.43;3.47;;;;;;;;;;5059633;28;20039;-80
2023/08/30 01:56:07;;;;;;;4.30;3.72;;;;;;;;;;5056951;28;20036;-78
2023/08/30 01:58:33;;;;;;;3.67;3.17;;;;;;;;;;5065939;28;20028;-79
2023/08/30 02:01:00;;;;;;;3.47;3.10;;;;;;;;;;5058056;28;20043;-78
2023/08/30 02:03:25;;;;;;;3.25;2.95;;;;;;;;;;5067450;28;20025;-78
2023/08/30 02:06:11;;;;;;;3.67;3.00;;;;;;;;;;5059892;28;20043;-79
2023/08/30 02:08:44;;;;;;;3.92;3.20;;;;;;;;;;5075670;28;20087;-80
2023/08/30 02:11:23;;;;;;;4.28;3.30;;;;;;;;;;5060672;28;20053;-80
2023/08/30 02:13:52;;;;;;;3.15;2.85;;;;;;;;;;5062953;28;20116;-79
2023/08/30 02:16:18;;;;;;;2.95;2.63;;;;;;;;;;5071538;28;20023;-78
2023/08/30 02:18:44;;;;;;;5.38;3.08;;;;;;;;;;5063260;28;20032;-79
2023/08/30 02:21:10;;;;;;;3.00;2.80;;;;;;;;;;5043382;28;20020;-79
2023/08/30 02:23:35;;;;;;;4.60;2.70;;;;;;;;;;5069220;28;20098;-79
2023/08/30 02:26:03;;;;;;;3.70;2.75;;;;;;;;;;5060014;28;20107;-80
2023/08/30 02:28:28;;;;;;;4.43;3.05;;;;;;;;;;5070122;28;20821;-80
2023/08/30 02:30:54;;;;;;;4.10;3.15;;;;;;;;;;5059967;28;20029;-80
2023/08/30 02:33:20;;;;;;;2.50;2.30;;;;;;;;;;5063981;28;20048;-79
2023/08/30 02:35:45;;;;;;;3.22;2.42;;;;;;;;;;5073762;28;20141;-80
2023/08/30 02:38:10;;;;;;;6.20;2.88;;;;;;;;;;5061287;28;20025;-80
2023/08/30 02:40:36;;;;;;;2.75;2.42;;;;;;;;;;5069824;28;20028;-80
2023/08/30 02:43:01;;;;;;;2.70;2.50;;;;;;;;;;5042891;28;21502;-80
2023/08/30 02:45:26;;;;;;;3.85;2.80;;;;;;;;;;5062737;28;20033;-80
2023/08/30 02:47:55;;;;;;;3.30;2.72;;;;;;;;;;5073137;28;20113;-77
2023/08/30 02:50:21;;;;;;;3.38;2.70;;;;;;;;;;5056229;28;20073;-78
2023/08/30 02:52:46;;;;;;;3.83;3.08;;;;;;;;;;5046590;28;20080;-79
2023/08/30 02:55:11;;;;;;;3.92;3.22;;;;;;;;;;5041233;28;20042;-80
2023/08/30 02:57:37;;;;;;;4.53;2.92;;;;;;;;;;5073440;28;20032;-80
2023/08/30 03:00:05;;;;;;;3.05;2.63;;;;;;;;;;5072917;28;20085;-79
2023/08/30 03:02:31;;;;;;;3.58;2.88;;;;;;;;;;5058253;28;20047;-80
2023/08/30 03:04:56;;;;;;;3.67;3.22;;;;;;;;;;5055454;28;20028;-79
2023/08/30 03:07:21;;;;;;;3.65;3.35;;;;;;;;;;5053188;28;20060;-81
2023/08/30 03:09:52;;;;;;;4.55;3.28;;;;;;;;;;5053804;28;20039;-80
2023/08/30 03:12:18;;;;;;;3.70;2.92;;;;;;;;;;5060771;28;20074;-81
2023/08/30 03:14:43;;;;;;;3.85;3.10;;;;;;;;;;5057528;28;20025;-80
2023/08/30 03:17:08;;;;;;;3.00;2.70;;;;;;;;;;5064908;28;20027;-81
2023/08/30 03:19:34;;;;;;;3.97;2.78;;;;;;;;;;5061536;28;20066;-81
2023/08/30 03:22:00;;;;;;;3.58;3.08;;;;;;;;;;5065088;28;20020;-80
2023/08/30 03:24:25;;;;;;;3.83;3.03;;;;;;;;;;5058934;28;20028;-81
2023/08/30 03:26:51;;;;;;;6.25;3.33;;;;;;;;;;5059113;28;20558;-80
2023/08/30 03:29:16;;;;;;;4.55;2.90;;;;;;;;;;5052126;28;20070;-80
2023/08/30 03:31:43;;;;;;;3.60;2.97;;;;;;;;;;5055280;28;20029;-80
2023/08/30 03:34:09;;;;;;;5.50;3.45;;;;;;;;;;5053658;28;20041;-79
2023/08/30 03:36:34;;;;;;;3.42;3.10;;;;;;;;;;5063381;28;20032;-80
2023/08/30 03:38:59;;;;;;;3.28;2.92;;;;;;;;;;5036168;28;20017;-80
2023/08/30 03:41:25;;;;;;;4.30;3.53;;;;;;;;;;5048964;28;20655;-79
2023/08/30 03:43:50;;;;;;;3.20;2.88;;;;;;;;;;5058998;28;20480;-79
2023/08/30 03:46:15;;;;;;;5.43;3.13;;;;;;;;;;5059745;28;20031;-80
2023/08/30 03:48:40;;;;;;;4.60;3.10;;;;;;;;;;5055710;28;20024;-80
2023/08/30 03:51:06;;;;;;;3.42;3.10;;;;;;;;;;5067846;28;20029;-80
2023/08/30 03:53:31;;;;;;;4.43;3.60;;;;;;;;;;5061857;28;20033;-80
2023/08/30 03:55:57;;;;;;;3.70;3.38;;;;;;;;;;5058267;28;20028;-81
2023/08/30 03:58:22;;;;;;;3.83;3.08;;;;;;;;;;5048110;28;20111;-80
2023/08/30 04:00:47;;;;;;;6.47;3.35;;;;;;;;;;5060625;28;20132;-80
2023/08/30 04:03:14;;;;;;;4.15;3.17;;;;;;;;;;5065077;28;20021;-81
2023/08/30 04:05:40;;;;;;;4.07;3.67;;;;;;;;;;5055764;28;20025;-81
2023/08/30 04:08:07;;;;;;;3.83;3.47;;;;;;;;;;5057909;28;20444;-81
2023/08/30 04:10:37;;;;;;;4.85;4.10;;;;;;;;;;5063815;28;20288;-80
2023/08/30 04:13:03;;;;;;;5.43;3.47;;;;;;;;;;5067263;28;20020;-80
2023/08/30 04:15:28;;;;;;;3.22;2.85;;;;;;;;;;5066203;28;20016;-80
2023/08/30 04:17:54;;;;;;;6.20;3.47;;;;;;;;;;5059801;28;20032;-80
2023/08/30 04:20:19;;;;;;;3.58;3.22;;;;;;;;;;5052141;28;20471;-80
2023/08/30 04:22:45;;;;;;;3.95;3.55;;;;;;;;;;5065939;28;20208;-80
2023/08/30 04:25:10;;;;;;;4.43;3.22;;;;;;;;;;5058176;28;20025;-80
2023/08/30 04:27:35;;;;;;;7.25;3.65;;;;;;;;;;5063125;28;20351;-81
2023/08/30 04:30:02;;;;;;;4.47;3.40;;;;;;;;;;5057783;28;20052;-80
2023/08/30 04:32:27;;;;;;;4.72;3.10;;;;;;;;;;5074350;28;20070;-81
2023/08/30 04:34:53;;;;;;;3.85;3.13;;;;;;;;;;5057524;28;20020;-81
2023/08/30 04:37:18;;;;;;;4.30;3.67;;;;;;;;;;5040079;28;20371;-81
2023/08/30 04:39:47;;;;;;;3.85;3.30;;;;;;;;;;5074452;28;20382;-80
2023/08/30 04:42:12;;;;;;;5.85;3.97;;;;;;;;;;5061308;28;20087;-81
2023/08/30 04:44:38;;;;;;;5.35;4.65;;;;;;;;;;5036993;28;20514;-81
2023/08/30 04:47:03;;;;;;;5.63;4.10;;;;;;;;;;5065087;28;20040;-80
2023/08/30 04:49:29;;;;;;;8.00;4.10;;;;;;;;;;5038056;28;20016;-81
2023/08/30 04:51:54;;;;;;;5.57;4.68;;;;;;;;;;5071182;28;20024;-81
2023/08/30 04:54:19;;;;;;;5.28;4.07;;;;;;;;;;5069540;28;20024;-79
2023/08/30 04:56:45;;;;;;;7.57;4.60;;;;;;;;;;5053172;28;20017;-81
2023/08/30 04:59:10;;;;;;;4.75;3.95;;;;;;;;;;5042745;28;20017;-81
2023/08/30 05:01:37;;;;;;;5.90;4.35;;;;;;;;;;5059260;28;20025;-81
2023/08/30 05:04:03;;;;;;;5.10;4.18;;;;;;;;;;5073044;28;20028;-81
2023/08/30 05:06:28;;;;;;;4.72;3.92;;;;;;;;;;5042310;28;20025;-81
2023/08/30 05:08:53;;;;;;;4.47;4.00;;;;;;;;;;5061157;28;20607;-81
2023/08/30 05:11:19;;;;;;;5.32;3.72;;;;;;;;;;5061254;28;20025;-81
2023/08/30 05:13:44;;;;;;;7.07;4.55;;;;;;;;;;5067895;28;20070;-81
2023/08/30 05:16:09;;;;;;;5.25;4.10;;;;;;;;;;5053709;28;20170;-81
2023/08/30 05:18:35;;;;;;;4.50;3.70;;;;;;;;;;5055090;28;20507;-80
2023/08/30 05:21:03;;;;;;;4.03;3.53;;;;;;;;;;5056509;28;20032;-80
2023/08/30 05:23:28;;;;;;;5.88;3.63;;;;;;;;;;5042424;28;20021;-81
2023/08/30 05:25:54;;;;;;;6.20;3.85;;;;;;;;;;5069142;28;20043;-79
2023/08/30 05:28:19;;;;;;;4.82;3.53;;;;;;;;;;5044043;28;20055;-81
2023/08/30 05:30:44;;;;;;;5.50;4.25;;;;;;;;;;5058218;28;20108;-81
2023/08/30 05:33:10;;;;;;;5.40;4.20;;;;;;;;;;5048329;28;20031;-81
2023/08/30 05:35:35;;;;;;;4.60;4.05;;;;;;;;;;5058683;28;20099;-82
2023/08/30 05:38:00;;;;;;;4.13;3.60;;;;;;;;;;5067851;28;20024;-81
2023/08/30 05:40:26;;;;;;;4.75;3.92;;;;;;;;;;5054093;28;20526;-81
2023/08/30 05:42:51;;;;;;;9.43;5.22;;;;;;;;;;5057513;28;20029;-80
2023/08/30 05:45:16;;;;;;;5.45;4.53;;;;;;;;;;5059398;28;20035;-81
2023/08/30 05:47:42;;;;;;;6.47;4.40;;;;;;;;;;5061254;28;20036;-81
2023/08/30 05:50:08;;;;;;;5.30;4.22;;;;;;;;;;5062382;28;20089;-80
2023/08/30 05:52:33;;;;;;;5.15;4.15;;;;;;;;;;5060690;28;20013;-80
2023/08/30 05:54:58;;;;;;;4.50;3.67;;;;;;;;;;5058673;28;20021;-79
2023/08/30 05:57:25;;;;;;;6.57;4.13;;;;;;;;;;5051826;28;20483;-81
2023/08/30 05:59:50;;;;;;;6.05;4.45;;;;;;;;;;5049549;28;20054;-79
2023/08/30 06:02:19;;;;;;;4.80;3.88;;;;;;;;;;5053105;28;20098;-80
2023/08/30 06:04:44;;;;;;;4.72;3.70;;;;;;;;;;5051631;28;20017;-80
2023/08/30 06:07:09;;;;;;;5.32;3.90;;;;;;;;;;5034979;28;20033;-80
2023/08/30 06:09:35;;;;;;;7.70;3.80;;;;;;;;;;5052224;28;20198;-80
2023/08/30 06:12:00;;;;;;;5.57;4.40;;;;;;;;;;5034252;28;20120;-79
2023/08/30 06:14:26;;;;;;;4.45;4.05;;;;;;;;;;5051864;28;20071;-80
2023/08/30 06:16:51;;;;;;;5.03;3.55;;;;;;;;;;5051852;28;20023;-80
2023/08/30 06:19:16;;;;;;;4.82;3.80;;;;;;;;;;5054134;28;20372;-80
2023/08/30 06:21:42;;;;;;;4.75;3.85;;;;;;;;;;5054045;28;20060;-80
2023/08/30 06:24:07;;;;;;;4.35;3.75;;;;;;;;;;5063871;28;20139;-80
2023/08/30 06:26:32;;;;;;;5.70;3.97;;;;;;;;;;5063419;28;20036;-80
2023/08/30 06:28:58;;;;;;;3.25;2.95;;;;;;;;;;5054419;28;20219;-81
2023/08/30 06:31:23;;;;;;;3.30;3.00;;;;;;;;;;5051070;28;20086;-80
2023/08/30 06:33:50;;;;;;;4.93;3.28;;;;;;;;;;5035609;28;20021;-80
2023/08/30 06:36:17;;;;;;;3.53;3.00;;;;;;;;;;5057739;28;20036;-81
2023/08/30 06:38:42;;;;;;;4.97;3.42;;;;;;;;;;5048364;28;20676;-81
2023/08/30 06:41:08;;;;;;;3.70;3.28;;;;;;;;;;5056245;28;20025;-80
2023/08/30 06:43:33;;;;;;;4.13;3.00;;;;;;;;;;5062832;28;20059;-79
2023/08/30 06:45:59;;;;;;;4.07;3.10;;;;;;;;;;5045831;28;20115;-82
2023/08/30 06:48:25;;;;;;;3.58;2.85;;;;;;;;;;5039293;28;20017;-83
2023/08/30 06:50:50;;;;;;;3.45;2.95;;;;;;;;;;5026356;28;20028;-81
2023/08/30 06:53:15;;;;;;;3.08;2.70;;;;;;;;;;5050070;28;20379;-83
2023/08/30 06:55:40;;;;;;;4.75;2.80;;;;;;;;;;5043199;28;20024;-82
2023/08/30 06:58:06;;;;;;;4.03;3.33;;;;;;;;;;5062204;28;20063;-82
2023/08/30 07:00:31;;;;;;;4.00;3.28;;;;;;;;;;5040095;28;20491;-83
2023/08/30 07:02:58;;;;;;;4.25;3.10;;;;;;;;;;5058640;28;20025;-82
2023/08/30 07:05:23;;;;;;;3.80;3.10;;;;;;;;;;5044548;28;20033;-84
2023/08/30 07:07:49;;;;;;;4.00;3.22;;;;;;;;;;5034752;28;20387;-83
2023/08/30 07:10:14;;;;;;;3.13;2.60;;;;;;;;;;5051490;28;20105;-82
2023/08/30 07:12:39;;;;;;;4.75;3.40;;;;;;;;;;5052958;28;20395;-82
2023/08/30 07:15:05;;;;;;;3.08;2.75;;;;;;;;;;5052805;28;20071;-82
2023/08/30 07:18:01;;;;;;;3.95;3.28;;;;;;;;;;5057703;28;20646;-84
2023/08/30 07:20:27;;;;;;;5.88;2.92;;;;;;;;;;5039006;28;20600;-83
2023/08/30 07:22:52;;;;;;;4.15;2.95;;;;;;;;;;5063722;28;20048;-83
2023/08/30 07:25:18;;;;;;;5.28;3.10;;;;;;;;;;5039785;28;20475;-83
2023/08/30 07:27:43;;;;;;;3.95;3.10;;;;;;;;;;5056195;28;20048;-85
2023/08/30 07:32:58;;;;;;;3.97;3.10;;;;;;;;;;5060090;22;20040;-83
2023/08/30 07:35:23;;;;;;;4.95;3.15;;;;;;;;;;5050234;28;20203;-82
2023/08/30 07:37:48;;;;;;;2.83;2.53;;;;;;;;;;5038044;28;20017;-83
2023/08/30 07:40:14;;;;;;;3.35;2.78;;;;;;;;;;5053454;28;20033;-82
2023/08/30 07:42:39;;;;;;;3.30;2.75;;;;;;;;;;5039074;28;20029;-83
2023/08/30 07:45:05;;;;;;;3.42;2.95;;;;;;;;;;5035693;28;20101;-83
2023/08/30 07:47:31;;;;;;;3.35;2.63;;;;;;;;;;5034605;28;20032;-83
2023/08/30 07:49:56;;;;;;;2.90;2.60;;;;;;;;;;5043214;28;20448;-83
2023/08/30 07:52:21;;;;;;;3.17;2.80;;;;;;;;;;5037732;28;20021;-84
2023/08/30 07:54:47;;;;;;;3.38;3.08;;;;;;;;;;5046381;28;20047;-82
2023/08/30 07:57:12;;;;;;;3.33;2.92;;;;;;;;;;5054408;28;20064;-83
2023/08/30 08:02:58;;;;;;;3.53;3.20;;;;;;;;;;5130985;22;20050;-87
2023/08/30 08:05:23;;;;;;;4.10;3.47;;;;;;;;;;5125544;27;20039;-86
2023/08/30 08:07:53;;;;;;;4.85;3.30;;;;;;;;;;5127841;27;20032;-86
2023/08/30 08:10:18;;;;;;;6.03;3.67;;;;;;;;;;5109444;28;20024;-86
2023/08/30 08:12:44;;;;;;;4.82;3.20;;;;;;;;;;5123308;27;20352;-86
2023/08/30 08:15:10;;;;;;;3.75;3.10;;;;;;;;;;5117886;28;20446;-86
2023/08/30 08:17:35;;;;;;;3.80;3.05;;;;;;;;;;5107895;28;20113;-85
2023/08/30 08:20:00;;;;;;;5.18;3.15;;;;;;;;;;5104589;28;20020;-85
2023/08/30 08:22:26;;;;;;;3.33;3.03;;;;;;;;;;5099857;28;20028;-86
2023/08/30 08:24:53;;;;;;;4.15;2.95;;;;;;;;;;5118815;28;20030;-86
2023/08/30 08:27:19;;;;;;;3.42;2.97;;;;;;;;;;5115904;28;20430;-86
2023/08/30 08:29:44;;;;;;;4.97;3.60;;;;;;;;;;5109784;28;20022;-87
2023/08/30 08:32:09;;;;;;;3.95;2.85;;;;;;;;;;5133485;28;20050;-86
2023/08/30 08:34:34;;;;;;;5.00;2.63;;;;;;;;;;5128795;28;20032;-87
2023/08/30 08:37:00;;;;;;;3.67;2.88;;;;;;;;;;5116434;27;20075;-87
2023/08/30 08:39:25;;;;;;;4.25;2.88;;;;;;;;;;5102507;28;20119;-86
2023/08/30 08:41:52;;;;;;;3.40;2.33;;;;;;;;;;5127853;28;20023;-87
2023/08/30 08:44:19;;;;;;;2.65;2.45;;;;;;;;;;5118762;28;20190;-87
2023/08/30 08:46:46;;;;;;;3.30;3.00;;;;;;;;;;5102521;28;20049;-87
2023/08/30 08:49:13;;;;;;;3.15;2.22;;;;;;;;;;5106777;28;20020;-85
2023/08/30 08:51:39;;;;;;;2.72;2.10;;;;;;;;;;5106068;28;20027;-85
2023/08/30 08:54:05;;;;;;;3.15;2.28;;;;;;;;;;5115562;28;20028;-86
2023/08/30 08:56:32;;;;;;;3.08;2.53;;;;;;;;;;5121033;28;20070;-87
2023/08/30 08:58:58;;;;;;;2.70;2.00;;;;;;;;;;5127249;28;20087;-87
2023/08/30 09:01:24;;;;;;;2.30;2.08;;;;;;;;;;5108943;28;20070;-86
2023/08/30 09:03:50;;;;;;;2.20;2.00;;;;;;;;;;5120613;28;20485;-86
2023/08/30 09:06:16;;;;;;;2.67;1.85;;;;;;;;;;5101498;28;20051;-86
2023/08/30 09:08:41;;;;;;;4.50;2.00;;;;;;;;;;5116667;27;20111;-87
2023/08/30 09:11:07;;;;;;;2.15;1.70;;;;;;;;;;5119574;28;20426;-86
2023/08/30 09:13:32;;;;;;;3.22;1.75;;;;;;;;;;5099343;28;20028;-85
2023/08/30 09:15:58;;;;;;;2.88;2.13;;;;;;;;;;5118705;28;20023;-86
2023/08/30 09:18:27;;;;;;;1.83;1.70;;;;;;;;;;5116573;28;20016;-86
2023/08/30 09:21:18;;;;;;;5.10;1.50;;;;;;;;;;5102942;28;20048;-86
2023/08/30 09:23:44;;;;;;;1.27;1.20;;;;;;;;;;5110667;28;20185;-86
2023/08/30 09:26:09;;;;;;;1.63;1.52;;;;;;;;;;5117259;28;20051;-85
2023/08/30 09:28:43;;;;;;;1.60;1.50;;;;;;;;;;5114398;28;20027;-85
2023/08/30 09:31:18;;;;;;;1.80;1.70;;;;;;;;;;5104966;28;20039;-86
2023/08/30 09:33:45;;;;;;;1.38;1.20;;;;;;;;;;5103527;28;20015;-86
2023/08/30 09:36:11;;;;;;;2.17;1.17;;;;;;;;;;5117657;28;20094;-85
2023/08/30 09:38:37;;;;;;;2.40;1.40;;;;;;;;;;5123576;27;20031;-85
2023/08/30 09:41:06;;;;;;;1.92;1.73;;;;;;;;;;5113237;28;20627;-86
2023/08/30 09:43:35;;;;;;;2.22;1.55;;;;;;;;;;5115050;28;20020;-86
2023/08/30 09:46:04;;;;;;;1.58;1.48;;;;;;;;;;5125883;27;20031;-85
2023/08/30 09:48:31;;;;;;;1.30;1.20;;;;;;;;;;5118236;27;20023;-85
2023/08/30 09:50:59;;;;;;;1.10;1.10;;;;;;;;;;5099143;28;20023;-85
2023/08/30 09:53:27;;;;;;;1.33;1.23;;;;;;;;;;5097692;28;20566;-85
2023/08/30 09:55:53;;;;;;;2.63;1.40;;;;;;;;;;5089806;28;20026;-85
2023/08/30 09:58:21;;;;;;;2.17;1.38;;;;;;;;;;5101068;28;20072;-86
2023/08/30 10:00:46;;;;;;;3.03;1.70;;;;;;;;;;5104869;27;20076;-85
2023/08/30 10:03:12;;;;;;;1.55;1.45;;;;;;;;;;5120999;27;20019;-86
2023/08/30 10:05:39;;;;;;;1.70;1.25;;;;;;;;;;5126401;28;20171;-85
2023/08/30 10:08:07;;;;;;;4.13;1.83;;;;;;;;;;5091146;28;20121;-87
2023/08/30 10:10:33;;;;;;;4.35;1.50;;;;;;;;;;5108184;28;20028;-85
2023/08/30 10:13:00;;;;;;;0.90;0.90;;;;;;;;;;5119140;28;20099;-85
2023/08/30 10:15:28;;;;;;;1.33;1.23;;;;;;;;;;5102613;28;20077;-86
2023/08/30 10:17:55;;;;;;;1.48;1.38;;;;;;;;;;5117925;28;20031;-86
2023/08/30 10:20:20;;;;;;;1.10;1.10;;;;;;;;;;5106469;27;20027;-87
2023/08/30 10:22:47;;;;;;;1.10;1.10;;;;;;;;;;5106687;28;20016;-86
2023/08/30 10:25:26;;;;;;;1.20;1.13;;;;;;;;;;5087485;28;20101;-87
2023/08/30 10:27:53;;;;;;;1.40;1.23;;;;;;;;;;5100746;28;20015;-85
2023/08/30 10:30:20;;;;;;;3.50;1.33;;;;;;;;;;5117264;28;20051;-86
2023/08/30 10:32:45;;;;;;;1.40;1.30;;;;;;;;;;5113905;28;20024;-86
2023/08/30 10:35:13;;;;;;;1.42;1.33;;;;;;;;;;5090872;28;20038;-86
2023/08/30 10:37:38;;;;;;;1.13;1.08;;;;;;;;;;5089916;28;20063;-86
2023/08/30 10:40:05;;;;;;;1.33;1.20;;;;;;;;;;5114179;28;20093;-86
2023/08/30 10:42:31;;;;;;;2.47;1.40;;;;;;;;;;5114206;28;20023;-86
2023/08/30 10:45:00;;;;;;;1.30;1.20;;;;;;;;;;5108172;28;20451;-86
2023/08/30 10:47:30;;;;;;;2.13;1.20;;;;;;;;;;5114831;28;20076;-86
2023/08/30 10:49:57;;;;;;;1.20;1.10;;;;;;;;;;5100217;28;20051;-87
2023/08/30 10:52:23;;;;;;;1.83;1.27;;;;;;;;;;5103070;28;20015;-86
2023/08/30 10:54:50;;;;;;;1.75;1.33;;;;;;;;;;5111732;28;20027;-86
2023/08/30 10:57:20;;;;;;;1.02;0.98;;;;;;;;;;5105198;28;20026;-85
2023/08/30 11:00:19;;;;;;;1.05;1.02;;;;;;;;;;5105591;28;20023;-87
2023/08/30 11:02:46;;;;;;;1.08;1.05;;;;;;;;;;5105276;28;20034;-85
2023/08/30 11:05:11;;;;;;;1.48;1.30;;;;;;;;;;5113534;28;20242;-87
2023/08/30 11:07:37;;;;;;;1.38;1.27;;;;;;;;;;5109758;27;20060;-86
2023/08/30 11:10:07;;;;;;;3.72;1.63;;;;;;;;;;5113362;28;20058;-86
2023/08/30 11:12:33;;;;;;;1.60;1.33;;;;;;;;;;5111939;28;20110;-86
2023/08/30 11:14:58;;;;;;;1.50;1.40;;;;;;;;;;5111065;28;20039;-86
2023/08/30 11:17:23;;;;;;;1.98;1.60;;;;;;;;;;5114132;28;20758;-87
2023/08/30 11:19:51;;;;;;;1.38;1.27;;;;;;;;;;5121524;28;20123;-85
2023/08/30 11:22:17;;;;;;;1.55;1.45;;;;;;;;;;5115573;28;20036;-86
2023/08/30 11:24:43;;;;;;;1.70;1.33;;;;;;;;;;5114518;28;20024;-86
2023/08/30 11:27:09;;;;;;;2.55;1.80;;;;;;;;;;5111522;28;20027;-86
2023/08/30 11:29:35;;;;;;;1.50;1.40;;;;;;;;;;5120244;28;20023;-86
2023/08/30 11:32:00;;;;;;;1.40;1.33;;;;;;;;;;5121415;28;20016;-86
2023/08/30 11:34:25;;;;;;;1.38;1.27;;;;;;;;;;5122974;27;20020;-86
2023/08/30 11:36:52;;;;;;;2.88;1.70;;;;;;;;;;5134602;27;20482;-86
2023/08/30 11:39:17;;;;;;;1.50;1.35;;;;;;;;;;5125208;27;20019;-85
2023/08/30 11:41:44;;;;;;;1.92;1.55;;;;;;;;;;5122249;27;20023;-84
2023/08/30 11:44:11;;;;;;;2.20;1.63;;;;;;;;;;5090538;28;20034;-83
2023/08/30 11:46:36;;;;;;;2.25;1.70;;;;;;;;;;5103343;28;20028;-85
2023/08/30 11:49:03;;;;;;;1.60;1.50;;;;;;;;;;5098850;28;20022;-85
2023/08/30 11:51:29;;;;;;;1.95;1.75;;;;;;;;;;5100204;27;20024;-86
2023/08/30 11:53:55;;;;;;;1.77;1.67;;;;;;;;;;5121738;27;20076;-86
2023/08/30 11:56:22;;;;;;;2.63;2.00;;;;;;;;;;5108314;27;20027;-86
2023/08/30 11:58:48;;;;;;;2.22;2.03;;;;;;;;;;5116733;28;20026;-86
2023/08/30 12:01:14;;;;;;;3.50;1.90;;;;;;;;;;5110056;28;20024;-86
2023/08/30 12:03:50;;;;;;;2.45;1.90;;;;;;;;;;5119765;22;20742;-79
2023/08/30 12:06:28;;;;;;;2.47;2.28;;;;;;;;;;5084484;28;20042;-81
2023/08/30 12:09:12;;;;;;;2.83;2.42;;;;;;;;;;5075429;28;20024;-81
2023/08/30 12:11:45;;;;;;;2.10;2.00;;;;;;;;;;5077753;28;20568;-80
2023/08/30 12:14:11;;;;;;;2.22;1.95;;;;;;;;;;5077478;28;20031;-80
2023/08/30 12:16:39;;;;;;;3.33;2.55;;;;;;;;;;5086277;28;20028;-80
2023/08/30 12:19:11;;;;;;;2.83;2.33;;;;;;;;;;5086208;28;20476;-80
2023/08/30 12:21:41;;;;;;;3.72;2.53;;;;;;;;;;5077884;28;20031;-80
2023/08/30 12:24:07;;;;;;;2.67;2.30;;;;;;;;;;5077147;28;20127;-80
2023/08/30 12:26:34;;;;;;;2.25;1.98;;;;;;;;;;5077386;28;20048;-80
2023/08/30 12:29:00;;;;;;;2.15;1.90;;;;;;;;;;5074135;28;20039;-81
2023/08/30 12:31:31;;;;;;;3.03;2.20;;;;;;;;;;5077377;28;20107;-80
2023/08/30 12:33:56;;;;;;;6.17;2.20;;;;;;;;;;5081522;28;20027;-80
2023/08/30 12:36:25;;;;;;;2.20;1.88;;;;;;;;;;5080306;28;21028;-80
2023/08/30 12:38:50;;;;;;;2.30;2.08;;;;;;;;;;5085044;28;20020;-79
2023/08/30 12:41:20;;;;;;;3.75;2.30;;;;;;;;;;5076541;28;20493;-81
2023/08/30 12:43:46;;;;;;;3.20;2.08;;;;;;;;;;5076532;28;20024;-82
2023/08/30 12:46:11;;;;;;;2.10;1.90;;;;;;;;;;5077119;28;20093;-80
2023/08/30 12:48:37;;;;;;;2.03;1.80;;;;;;;;;;5078069;28;20103;-81
2023/08/30 12:51:03;;;;;;;2.03;1.85;;;;;;;;;;5077912;28;20028;-81
2023/08/30 12:53:28;;;;;;;2.88;2.25;;;;;;;;;;5085087;28;20017;-81
2023/08/30 12:55:54;;;;;;;3.15;1.88;;;;;;;;;;5076834;28;20082;-80
2023/08/30 12:58:19;;;;;;;2.58;1.67;;;;;;;;;;5074767;28;20551;-81
2023/08/30 13:00:44;;;;;;;1.73;1.63;;;;;;;;;;5077993;28;20451;-81
2023/08/30 13:03:10;;;;;;;1.52;1.42;;;;;;;;;;5076454;28;20074;-80
2023/08/30 13:05:36;;;;;;;2.13;1.85;;;;;;;;;;5074911;28;20039;-79
2023/08/30 13:08:02;;;;;;;1.63;1.52;;;;;;;;;;5071366;28;20024;-80
2023/08/30 13:10:28;;;;;;;1.40;1.30;;;;;;;;;;5071877;28;20086;-80
2023/08/30 13:12:53;;;;;;;1.85;1.70;;;;;;;;;;5076070;28;20020;-80
2023/08/30 13:15:18;;;;;;;2.13;1.70;;;;;;;;;;5074963;28;20439;-80
2023/08/30 13:17:44;;;;;;;2.67;1.75;;;;;;;;;;5064993;28;20082;-79
2023/08/30 13:20:10;;;;;;;1.90;1.67;;;;;;;;;;5069898;28;20059;-80
2023/08/30 13:22:36;;;;;;;2.03;1.48;;;;;;;;;;5073352;28;20026;-79
2023/08/30 13:25:03;;;;;;;2.35;1.90;;;;;;;;;;5070660;28;20032;-80
2023/08/30 13:27:28;;;;;;;1.85;1.60;;;;;;;;;;5073757;28;20028;-80
2023/08/30 13:29:54;;;;;;;1.70;1.60;;;;;;;;;;5071799;28;20150;-80
2023/08/30 13:32:19;;;;;;;2.47;1.83;;;;;;;;;;5080343;28;20024;-80
2023/08/30 13:34:45;;;;;;;1.60;1.40;;;;;;;;;;5087992;28;20028;-79
2023/08/30 13:37:12;;;;;;;1.73;1.63;;;;;;;;;;5076880;28;20035;-80
2023/08/30 13:39:37;;;;;;;1.55;1.30;;;;;;;;;;5069856;28;20028;-80
2023/08/30 13:42:02;;;;;;;2.17;1.73;;;;;;;;;;5073956;28;20111;-81
2023/08/30 13:44:28;;;;;;;1.70;1.60;;;;;;;;;;5073501;28;20043;-79
2023/08/30 13:46:53;;;;;;;1.52;1.20;;;;;;;;;;5064874;28;20036;-79
2023/08/30 13:49:18;;;;;;;1.70;1.60;;;;;;;;;;5072957;28;20024;-80
2023/08/30 13:51:45;;;;;;;1.77;1.67;;;;;;;;;;5071383;28;20021;-79
2023/08/30 13:54:10;;;;;;;3.38;1.50;;;;;;;;;;5071640;28;20507;-81
2023/08/30 13:56:37;;;;;;;1.63;1.42;;;;;;;;;;5074816;28;20036;-80
2023/08/30 13:59:05;;;;;;;2.80;1.60;;;;;;;;;;5071970;28;20507;-80
2023/08/30 14:01:31;;;;;;;2.65;1.52;;;;;;;;;;5072225;28;20060;-80
2023/08/30 14:03:56;;;;;;;1.90;1.60;;;;;;;;;;5074165;28;20024;-80
2023/08/30 14:06:21;;;;;;;1.98;1.75;;;;;;;;;;5074039;28;20029;-79
2023/08/30 14:08:47;;;;;;;1.40;1.30;;;;;;;;;;5066192;28;20485;-80
2023/08/30 14:11:13;;;;;;;1.40;1.30;;;;;;;;;;5073088;28;20028;-80
2023/08/30 14:13:38;;;;;;;1.83;1.23;;;;;;;;;;5074467;28;20051;-79
2023/08/30 14:16:04;;;;;;;1.55;1.35;;;;;;;;;;5073875;28;20089;-80
2023/08/30 14:18:29;;;;;;;1.60;1.50;;;;;;;;;;5080129;28;20498;-80
2023/08/30 14:20:57;;;;;;;1.80;1.50;;;;;;;;;;5073472;28;20466;-80
2023/08/30 14:23:23;;;;;;;1.52;1.42;;;;;;;;;;5074963;28;20077;-80
2023/08/30 14:25:57;;;;;;;1.40;1.30;;;;;;;;;;5072637;28;20028;-81
2023/08/30 14:28:22;;;;;;;3.90;1.45;;;;;;;;;;5071232;28;20020;-80
2023/08/30 14:30:47;;;;;;;2.20;1.40;;;;;;;;;;5080858;28;20389;-80
2023/08/30 14:33:13;;;;;;;3.40;1.45;;;;;;;;;;5073782;28;20021;-80
2023/08/30 14:35:41;;;;;;;1.70;1.60;;;;;;;;;;5072363;28;20044;-80
2023/08/30 14:38:07;;;;;;;1.50;1.40;;;;;;;;;;5080195;28;20397;-81
2023/08/30 14:40:32;;;;;;;1.20;1.10;;;;;;;;;;5068324;28;20108;-79
2023/08/30 14:42:57;;;;;;;1.30;1.20;;;;;;;;;;5066258;28;20036;-80
2023/08/30 14:45:23;;;;;;;2.50;1.35;;;;;;;;;;5093013;28;20099;-82